Time;durP1;ratioP1;P1;durP2;ratioP2;P2;SDS_P1;SDS_P2;PMS_P1;PMS_P2;Temp;Humidity;BMP_temperature;BMP_pressure;BME280_temperature;BME280_humidity;BME280_pressure;Samples;Min_cycle;Max_cycle;Signal;HPM_P1;HPM_P2
2022/03/01 00:01:54;;;;;;;7.78;4.40;;;;;;;2.01;52.90;101464.97;4455131;32;33405;-64
2022/03/01 00:04:22;;;;;;;9.20;4.75;;;;;;;2.15;52.50;101454.53;4433396;32;32270;-61
2022/03/01 00:06:49;;;;;;;9.52;4.82;;;;;;;2.14;52.45;101457.84;4455398;32;32637;-62
2022/03/01 00:09:17;;;;;;;14.32;4.80;;;;;;;2.12;52.57;101460.97;4455295;32;34399;-62
2022/03/01 00:11:44;;;;;;;10.20;4.80;;;;;;;2.07;52.51;101452.81;4451886;32;34046;-62
2022/03/01 00:14:12;;;;;;;11.20;5.07;;;;;;;1.92;52.76;101451.22;4454985;32;33881;-62
2022/03/01 00:16:40;;;;;;;10.80;4.82;;;;;;;1.92;52.87;101453.75;4455188;32;33642;-62
2022/03/01 00:19:07;;;;;;;7.97;4.72;;;;;;;2.05;52.73;101464.53;4455435;32;34579;-62
2022/03/01 00:21:35;;;;;;;8.88;4.75;;;;;;;2.07;52.42;101455.38;4453093;32;34325;-65
2022/03/01 00:24:02;;;;;;;8.15;4.70;;;;;;;2.02;52.32;101455.62;4453505;32;33742;-65
2022/03/01 00:26:30;;;;;;;7.82;3.92;;;;;;;2.22;52.07;101455.16;4441178;32;34645;-62
2022/03/01 00:28:58;;;;;;;9.15;4.60;;;;;;;2.33;51.70;101459.72;4454922;32;34395;-62
2022/03/01 00:31:25;;;;;;;9.75;4.82;;;;;;;2.20;52.04;101449.88;4451487;32;33467;-62
2022/03/01 00:33:53;;;;;;;9.57;4.85;;;;;;;2.26;51.69;101453.09;4454921;32;35211;-62
2022/03/01 00:36:20;;;;;;;9.73;4.70;;;;;;;2.44;51.27;101454.09;4455004;32;34506;-62
2022/03/01 00:38:48;;;;;;;7.35;4.30;;;;;;;2.29;51.57;101438.06;4446288;32;34655;-62
2022/03/01 00:41:16;;;;;;;8.32;4.12;;;;;;;2.24;51.40;101454.59;4455004;32;33375;-62
2022/03/01 00:43:43;;;;;;;8.80;4.43;;;;;;;2.31;51.21;101443.34;4454596;32;34019;-63
2022/03/01 00:46:10;;;;;;;11.32;4.45;;;;;;;2.29;51.42;101447.37;4454686;32;33892;-62
2022/03/01 00:48:38;;;;;;;12.15;4.37;;;;;;;2.20;51.28;101441.31;4448096;32;34040;-62
2022/03/01 00:51:06;;;;;;;9.15;4.20;;;;;;;2.05;51.82;101456.87;4455016;32;33562;-64
2022/03/01 00:53:33;;;;;;;8.15;4.55;;;;;;;2.06;51.77;101451.00;4453601;32;33751;-65
2022/03/01 00:56:04;;;;;;;11.00;4.72;;;;;;;2.03;52.11;101437.91;4454608;32;33656;-62
2022/03/01 00:58:32;;;;;;;8.75;4.65;;;;;;;2.04;51.75;101447.37;4454725;32;33868;-65
2022/03/01 01:00:59;;;;;;;9.10;4.43;;;;;;;1.92;52.33;101439.31;4454687;32;34126;-63
2022/03/01 01:03:27;;;;;;;8.18;4.50;;;;;;;2.04;51.92;101439.69;4453722;32;34633;-64
2022/03/01 01:05:55;;;;;;;9.73;4.20;;;;;;;2.04;52.04;101436.25;4454662;32;34664;-65
2022/03/01 01:08:23;;;;;;;8.35;4.22;;;;;;;1.83;52.64;101438.34;4454421;32;34155;-63
2022/03/01 01:10:50;;;;;;;9.00;4.43;;;;;;;1.82;52.66;101435.66;4454774;32;33760;-65
2022/03/01 01:13:19;;;;;;;7.97;4.55;;;;;;;1.88;52.30;101428.62;4454673;32;33870;-62
2022/03/01 01:15:46;;;;;;;8.30;4.25;;;;;;;2.09;51.71;101437.66;4454716;32;33904;-63
2022/03/01 01:18:14;;;;;;;7.95;4.07;;;;;;;1.81;52.43;101444.06;4453870;32;33818;-63
2022/03/01 01:20:41;;;;;;;8.60;4.65;;;;;;;1.93;51.96;101430.94;4462307;32;34266;-63
2022/03/01 01:23:09;;;;;;;8.27;4.75;;;;;;;1.86;52.09;101437.78;4450588;32;33996;-62
2022/03/01 01:25:36;;;;;;;8.60;4.32;;;;;;;1.87;52.08;101437.03;4454542;32;33593;-63
2022/03/01 01:28:04;;;;;;;8.32;4.45;;;;;;;1.75;52.55;101431.53;4454525;32;34539;-63
2022/03/01 01:30:33;;;;;;;8.65;4.35;;;;;;;1.81;52.34;101438.94;4448254;32;34316;-64
2022/03/01 01:33:01;;;;;;;10.65;4.30;;;;;;;1.77;52.54;101432.59;4453792;32;33606;-65
2022/03/01 01:35:30;;;;;;;8.00;4.65;;;;;;;1.74;52.49;101428.09;4453774;32;33915;-62
2022/03/01 01:37:59;;;;;;;10.23;4.28;;;;;;;1.82;51.97;101441.66;4454589;32;33938;-65
2022/03/01 01:40:30;;;;;;;10.25;4.60;;;;;;;1.84;52.10;101431.62;4440801;32;34224;-63
2022/03/01 01:42:58;;;;;;;7.80;3.47;;;;;;;1.95;51.97;101444.78;4454723;32;34672;-62
2022/03/01 01:45:26;;;;;;;8.18;4.40;;;;;;;1.93;51.96;101440.22;4454229;32;33799;-63
2022/03/01 01:47:56;;;;;;;8.95;3.90;;;;;;;1.88;52.00;101443.97;4454682;32;34640;-63
2022/03/01 01:50:23;;;;;;;11.25;4.65;;;;;;;1.79;52.01;101440.44;4454034;32;33384;-64
2022/03/01 01:52:53;;;;;;;10.38;4.15;;;;;;;1.63;52.37;101433.69;4450635;32;33913;-62
2022/03/01 01:55:23;;;;;;;9.32;3.95;;;;;;;1.60;52.46;101443.56;4451048;32;33924;-65
2022/03/01 01:57:57;;;;;;;7.78;4.22;;;;;;;1.63;52.23;101433.69;4454078;32;33823;-65
2022/03/01 02:00:25;;;;;;;6.85;3.75;;;;;;;1.54;52.52;101436.16;4454180;32;33598;-64
2022/03/01 02:02:53;;;;;;;7.12;3.78;;;;;;;1.68;52.01;101424.88;4454167;32;34453;-62
2022/03/01 02:05:21;;;;;;;7.18;3.83;;;;;;;1.73;51.81;101421.16;4437279;32;33913;-62
2022/03/01 02:07:49;;;;;;;8.68;4.40;;;;;;;1.65;52.11;101422.00;4454350;32;33944;-64
2022/03/01 02:10:17;;;;;;;7.85;4.28;;;;;;;1.58;52.10;101419.53;4454415;32;33243;-64
2022/03/01 02:12:45;;;;;;;8.90;4.20;;;;;;;1.62;51.87;101419.09;4450759;32;32704;-65
2022/03/01 02:15:13;;;;;;;7.22;3.80;;;;;;;1.68;51.96;101421.41;4453464;32;33689;-65
2022/03/01 02:17:42;;;;;;;9.32;3.53;;;;;;;1.62;51.85;101425.88;4439821;32;33845;-63
2022/03/01 02:20:20;;;;;;;7.47;3.67;;;;;;;1.80;51.29;101426.91;4454965;32;33454;-64
2022/03/01 02:22:53;;;;;;;8.23;3.95;;;;;;;1.73;51.48;101426.25;4442576;32;32218;-64
2022/03/01 02:25:20;;;;;;;7.62;3.72;;;;;;;1.67;51.55;101425.62;4437731;32;33945;-66
2022/03/01 02:27:48;;;;;;;8.65;3.75;;;;;;;1.48;52.18;101412.53;4454359;32;33628;-64
2022/03/01 02:30:15;;;;;;;8.10;3.72;;;;;;;1.47;51.97;101414.91;4453794;32;34042;-62
2022/03/01 02:32:43;;;;;;;6.50;3.35;;;;;;;1.51;51.75;101419.63;4453789;32;33944;-63
2022/03/01 02:35:14;;;;;;;7.37;3.62;;;;;;;1.47;52.07;101420.03;4454709;32;33668;-64
2022/03/01 02:37:42;;;;;;;7.72;3.33;;;;;;;1.49;51.68;101418.56;4451415;32;33101;-63
2022/03/01 02:40:10;;;;;;;6.40;3.50;;;;;;;1.56;51.62;101419.38;4450556;32;33379;-63
2022/03/01 02:42:40;;;;;;;9.48;3.97;;;;;;;1.53;51.49;101405.38;4454152;32;33589;-62
2022/03/01 02:45:09;;;;;;;7.82;3.33;;;;;;;1.52;51.71;101413.78;4454020;32;33904;-62
2022/03/01 02:47:37;;;;;;;6.87;3.35;;;;;;;1.56;51.73;101414.28;4453548;32;34178;-65
2022/03/01 02:50:05;;;;;;;7.47;3.58;;;;;;;1.52;51.64;101419.78;4452178;32;32203;-65
2022/03/01 02:52:34;;;;;;;8.80;4.00;;;;;;;1.68;50.94;101422.34;4443569;32;34621;-63
2022/03/01 02:55:02;;;;;;;6.07;3.25;;;;;;;1.64;51.14;101409.06;4453989;32;34494;-65
2022/03/01 02:57:30;;;;;;;8.52;3.17;;;;;;;1.67;51.08;101404.28;4451213;32;33845;-62
2022/03/01 02:59:58;;;;;;;6.28;3.05;;;;;;;1.55;51.09;101411.56;4437209;32;33263;-62
2022/03/01 03:02:25;;;;;;;6.68;3.08;;;;;;;1.51;50.97;101411.97;4453714;32;33809;-63
2022/03/01 03:04:53;;;;;;;6.53;3.08;;;;;;;1.61;51.25;101408.75;4453570;32;34907;-62
2022/03/01 03:07:20;;;;;;;6.75;3.50;;;;;;;1.57;51.29;101405.84;4454099;32;33171;-65
2022/03/01 03:09:48;;;;;;;7.82;2.90;;;;;;;1.48;51.34;101407.41;4447735;32;33448;-65
2022/03/01 03:12:16;;;;;;;6.40;3.42;;;;;;;1.51;51.52;101405.22;4453996;32;33653;-62
2022/03/01 03:14:43;;;;;;;7.15;3.00;;;;;;;1.58;51.17;101414.41;4453360;32;33972;-65
2022/03/01 03:17:11;;;;;;;5.78;2.90;;;;;;;1.73;50.58;101418.59;4454291;32;34110;-64
2022/03/01 03:19:39;;;;;;;7.68;2.90;;;;;;;1.65;50.91;101411.78;4453770;32;34030;-63
2022/03/01 03:22:06;;;;;;;6.53;2.83;;;;;;;1.75;50.35;101404.31;4453219;32;33496;-62
2022/03/01 03:24:33;;;;;;;8.45;3.45;;;;;;;1.61;50.97;101412.19;4453340;32;33841;-63
2022/03/01 03:27:01;;;;;;;7.12;4.03;;;;;;;1.70;50.64;101415.72;4454880;32;34737;-64
2022/03/01 03:29:30;;;;;;;8.20;2.92;;;;;;;1.87;50.13;101414.03;4455452;32;33109;-64
2022/03/01 03:31:57;;;;;;;6.82;3.25;;;;;;;1.84;50.05;101414.62;4453941;32;33414;-66
2022/03/01 03:34:25;;;;;;;7.28;3.03;;;;;;;1.68;50.24;101412.13;4454552;32;33899;-62
2022/03/01 03:36:53;;;;;;;7.03;3.70;;;;;;;1.64;50.41;101417.66;4455482;32;34098;-64
2022/03/01 03:39:20;;;;;;;9.15;3.70;;;;;;;1.89;49.98;101427.88;4455825;32;34493;-64
2022/03/01 03:41:51;;;;;;;6.57;2.95;;;;;;;1.91;49.68;101421.28;4455216;32;34678;-63
2022/03/01 03:44:18;;;;;;;8.40;3.50;;;;;;;2.09;48.99;101428.31;4454699;32;33740;-63
2022/03/01 03:46:47;;;;;;;10.20;3.72;;;;;;;2.22;48.57;101429.59;4447481;32;33973;-63
2022/03/01 03:49:15;;;;;;;7.12;3.10;;;;;;;2.28;48.32;101425.09;4455893;32;34099;-63
2022/03/01 03:51:42;;;;;;;8.20;3.58;;;;;;;2.67;47.36;101415.53;4441676;32;34730;-65
2022/03/01 03:54:10;;;;;;;6.60;3.15;;;;;;;2.87;46.82;101402.19;4455356;32;33881;-62
2022/03/01 03:56:38;;;;;;;9.68;3.37;;;;;;;3.05;46.13;101413.37;4455553;32;33918;-63
2022/03/01 03:59:07;;;;;;;6.55;2.83;;;;;;;2.80;46.71;101417.69;4455587;32;33610;-64
2022/03/01 04:01:35;;;;;;;6.05;3.10;;;;;;;2.90;46.18;101422.06;4454874;32;33771;-64
2022/03/01 04:04:03;;;;;;;8.25;3.05;;;;;;;3.18;45.56;101420.63;4455291;32;34603;-64
2022/03/01 04:06:31;;;;;;;6.78;3.10;;;;;;;3.35;45.55;101417.19;4451556;32;34398;-66
2022/03/01 04:08:59;;;;;;;6.57;3.22;;;;;;;3.04;45.98;101416.69;4452407;32;34086;-64
2022/03/01 04:11:26;;;;;;;6.50;3.60;;;;;;;3.20;45.68;101413.97;4451741;32;33668;-64
2022/03/01 04:13:54;;;;;;;7.60;3.35;;;;;;;3.21;45.46;101414.91;4455925;32;33991;-62
2022/03/01 04:16:21;;;;;;;6.20;2.90;;;;;;;3.11;45.75;101418.19;4455524;32;33602;-63
2022/03/01 04:18:50;;;;;;;5.12;2.70;;;;;;;2.79;46.57;101418.41;4441101;32;33342;-65
2022/03/01 04:21:17;;;;;;;5.22;2.90;;;;;;;2.71;46.73;101414.19;4447089;32;34608;-62
2022/03/01 04:23:45;;;;;;;6.25;3.05;;;;;;;2.89;46.60;101416.03;4454542;32;32148;-64
2022/03/01 04:26:14;;;;;;;6.65;3.33;;;;;;;2.76;46.29;101407.84;4453629;32;34172;-63
2022/03/01 04:28:42;;;;;;;6.90;2.87;;;;;;;3.02;45.98;101418.19;4454523;32;33398;-64
2022/03/01 04:31:10;;;;;;;6.78;3.60;;;;;;;2.76;46.14;101415.53;4445186;32;33717;-64
2022/03/01 04:33:37;;;;;;;7.82;3.97;;;;;;;2.95;46.08;101416.69;4455581;32;34786;-65
2022/03/01 04:36:07;;;;;;;7.18;3.40;;;;;;;2.62;46.54;101408.12;4444692;32;33967;-64
2022/03/01 04:38:35;;;;;;;7.47;3.40;;;;;;;2.68;46.76;101418.97;4450341;32;34167;-62
2022/03/01 04:41:03;;;;;;;6.37;3.12;;;;;;;2.66;46.85;101420.47;4454742;32;34695;-63
2022/03/01 04:43:32;;;;;;;6.75;3.12;;;;;;;3.07;45.79;101421.19;4454817;32;33635;-64
2022/03/01 04:45:59;;;;;;;8.30;2.90;;;;;;;2.67;46.66;101424.84;4454929;32;32377;-65
2022/03/01 04:48:27;;;;;;;8.27;3.40;;;;;;;3.23;45.60;101424.56;4455178;32;33519;-64
2022/03/01 04:50:54;;;;;;;6.55;2.80;;;;;;;3.18;45.17;101420.63;4439353;32;34327;-64
2022/03/01 04:53:22;;;;;;;6.37;2.12;;;;;;;3.29;44.96;101420.03;4447637;32;34375;-63
2022/03/01 04:55:50;;;;;;;6.70;2.67;;;;;;;3.26;44.87;101412.03;4455147;32;33725;-64
2022/03/01 04:58:18;;;;;;;6.15;2.80;;;;;;;3.62;44.10;101419.00;4453190;32;33225;-63
2022/03/01 05:00:46;;;;;;;7.55;3.20;;;;;;;2.74;46.00;101422.16;4444775;32;34446;-64
2022/03/01 05:03:14;;;;;;;8.05;2.72;;;;;;;3.79;43.54;101422.31;4453644;32;34410;-65
2022/03/01 05:05:42;;;;;;;6.03;2.80;;;;;;;3.82;43.76;101414.91;4454063;32;33919;-63
2022/03/01 05:08:09;;;;;;;7.68;3.30;;;;;;;3.83;43.63;101415.06;4449821;32;33978;-65
2022/03/01 05:10:37;;;;;;;6.12;2.65;;;;;;;3.78;43.28;101417.94;4438160;32;33854;-66
2022/03/01 05:13:09;;;;;;;5.87;2.50;;;;;;;3.30;44.60;101411.62;4454278;32;33791;-61
2022/03/01 05:15:37;;;;;;;7.50;3.15;;;;;;;3.13;44.56;101411.59;4428862;32;33242;-62
2022/03/01 05:18:04;;;;;;;8.15;3.70;;;;;;;2.53;47.07;101419.22;4454637;32;33809;-63
2022/03/01 05:20:34;;;;;;;7.43;3.67;;;;;;;2.01;48.52;101429.19;4454401;32;33012;-64
2022/03/01 05:23:02;;;;;;;9.95;3.70;;;;;;;2.08;48.34;101435.81;4454732;32;34060;-65
2022/03/01 05:25:29;;;;;;;9.77;4.37;;;;;;;1.49;50.12;101429.69;4443067;32;33586;-63
2022/03/01 05:27:57;;;;;;;11.23;5.60;;;;;;;1.24;50.91;101422.69;4445060;32;33352;-65
2022/03/01 05:30:25;;;;;;;13.57;4.57;;;;;;;1.14;51.61;101418.22;4452285;32;33843;-65
2022/03/01 05:32:53;;;;;;;13.48;5.40;;;;;;;1.03;51.68;101418.72;4447728;32;34038;-62
2022/03/01 05:35:23;;;;;;;13.18;4.12;;;;;;;0.62;53.19;101422.75;4453302;32;34009;-62
2022/03/01 05:37:53;;;;;;;8.40;3.60;;;;;;;0.96;52.14;101428.25;4454957;32;33357;-62
2022/03/01 05:40:22;;;;;;;9.73;4.20;;;;;;;0.76;52.69;101432.84;4451209;32;33853;-64
2022/03/01 05:42:50;;;;;;;9.43;4.20;;;;;;;0.58;52.90;101419.87;4452855;32;34636;-64
2022/03/01 05:45:18;;;;;;;11.73;4.00;;;;;;;1.36;51.71;101427.44;4453545;32;34027;-65
2022/03/01 05:47:47;;;;;;;13.65;4.18;;;;;;;1.43;50.87;101428.09;4455858;32;33552;-63
2022/03/01 05:50:15;;;;;;;12.55;4.00;;;;;;;0.88;52.14;101418.84;4453643;32;33649;-65
2022/03/01 05:52:48;;;;;;;10.85;3.80;;;;;;;0.73;52.90;101432.50;4451372;32;34855;-63
2022/03/01 05:55:16;;;;;;;7.80;3.90;;;;;;;0.77;52.69;101424.44;4454824;32;34523;-61
2022/03/01 05:57:43;;;;;;;6.57;3.83;;;;;;;1.47;50.78;101435.34;4441259;32;33418;-65
2022/03/01 06:00:14;;;;;;;6.75;2.97;;;;;;;0.68;52.42;101428.53;4454558;32;33999;-64
2022/03/01 06:02:43;;;;;;;9.88;3.95;;;;;;;0.68;52.58;101436.19;4438474;32;33024;-62
2022/03/01 06:05:11;;;;;;;7.57;3.78;;;;;;;0.54;53.32;101432.09;4443738;32;34450;-62
2022/03/01 06:07:39;;;;;;;8.52;3.50;;;;;;;1.34;51.12;101438.25;4440828;32;33502;-64
2022/03/01 06:10:07;;;;;;;9.90;3.50;;;;;;;0.81;51.99;101426.56;4443269;32;33842;-62
2022/03/01 06:12:34;;;;;;;7.57;3.33;;;;;;;0.92;52.14;101437.97;4458971;32;33696;-62
2022/03/01 06:15:03;;;;;;;8.98;2.95;;;;;;;0.40;53.41;101445.88;4454168;32;34202;-64
2022/03/01 06:17:31;;;;;;;11.35;3.87;;;;;;;1.09;52.09;101439.81;4428033;32;33333;-63
2022/03/01 06:19:58;;;;;;;9.65;3.50;;;;;;;2.08;49.64;101446.94;4455107;32;33887;-61
2022/03/01 06:22:26;;;;;;;10.25;3.37;;;;;;;1.02;51.47;101437.31;4455081;32;34739;-62
2022/03/01 06:24:55;;;;;;;12.75;4.00;;;;;;;0.87;52.09;101446.75;4427397;32;34517;-64
2022/03/01 06:27:23;;;;;;;8.63;3.62;;;;;;;0.91;52.24;101439.63;4428173;32;33366;-62
2022/03/01 06:29:51;;;;;;;6.30;3.22;;;;;;;1.54;50.05;101448.03;4453505;32;33848;-62
2022/03/01 06:32:18;;;;;;;9.32;3.58;;;;;;;1.15;50.83;101440.47;4453223;32;34800;-62
2022/03/01 06:34:46;;;;;;;9.38;3.42;;;;;;;1.56;51.00;101441.44;4452131;32;33881;-64
2022/03/01 06:37:34;;;;;;;9.38;3.10;;;;;;;2.79;47.48;101427.75;4452811;32;33974;-62
2022/03/01 06:40:06;;;;;;;10.10;3.12;;;;;;;2.95;46.80;101432.03;4448606;32;33547;-63
2022/03/01 06:42:34;;;;;;;7.05;3.65;;;;;;;2.65;47.58;101436.59;4449565;32;34582;-61
2022/03/01 06:45:03;;;;;;;10.00;3.37;;;;;;;1.76;48.68;101439.38;4442136;32;33865;-62
2022/03/01 06:47:30;;;;;;;7.43;3.05;;;;;;;2.18;47.79;101436.03;4451525;32;33013;-61
2022/03/01 06:50:00;;;;;;;7.18;3.12;;;;;;;3.31;46.15;101433.91;4435328;32;33662;-61
2022/03/01 06:52:28;;;;;;;10.23;2.85;;;;;;;3.31;45.67;101439.03;4437976;32;33880;-62
2022/03/01 06:54:56;;;;;;;6.93;3.20;;;;;;;3.85;44.58;101425.47;4438527;32;34334;-62
2022/03/01 06:57:24;;;;;;;6.93;2.78;;;;;;;4.06;44.10;101432.69;4438387;32;33727;-62
2022/03/01 06:59:53;;;;;;;5.72;2.40;;;;;;;3.32;45.44;101430.59;4452856;32;33877;-62
2022/03/01 07:02:21;;;;;;;5.45;2.08;;;;;;;3.76;43.80;101422.00;4454710;32;33964;-62
2022/03/01 07:04:49;;;;;;;4.90;2.20;;;;;;;3.41;44.74;101424.56;4448831;32;33569;-62
2022/03/01 07:07:17;;;;;;;4.87;2.08;;;;;;;2.91;45.88;101423.87;4451053;32;33106;-61
2022/03/01 07:09:45;;;;;;;8.43;2.40;;;;;;;3.39;44.15;101418.41;4449542;32;33605;-61
2022/03/01 07:12:13;;;;;;;4.65;2.50;;;;;;;3.47;44.35;101420.03;4448314;32;33903;-61
2022/03/01 07:14:40;;;;;;;6.12;2.45;;;;;;;3.59;44.14;101413.56;4450372;32;34661;-60
2022/03/01 07:17:08;;;;;;;6.20;2.17;;;;;;;2.81;45.96;101406.69;4453124;32;34039;-62
2022/03/01 07:19:35;;;;;;;6.53;2.50;;;;;;;2.71;46.10;101409.97;4450474;32;34547;-61
2022/03/01 07:22:03;;;;;;;5.68;2.45;;;;;;;2.84;45.97;101404.44;4448586;32;33879;-62
2022/03/01 07:24:30;;;;;;;8.77;2.25;;;;;;;2.75;45.70;101400.94;4452399;32;34452;-62
2022/03/01 07:26:58;;;;;;;3.50;1.65;;;;;;;2.88;45.85;101404.00;4432309;32;34315;-64
2022/03/01 07:29:26;;;;;;;5.25;1.67;;;;;;;3.21;44.85;101400.44;4449251;32;33908;-62
2022/03/01 07:31:53;;;;;;;4.85;1.83;;;;;;;2.88;45.51;101398.88;4451734;32;34647;-62
2022/03/01 07:34:25;;;;;;;5.65;2.10;;;;;;;2.94;45.54;101399.50;4444600;32;33822;-64
2022/03/01 07:36:53;;;;;;;4.22;1.98;;;;;;;3.46;44.75;101397.75;4439047;32;32962;-65
2022/03/01 07:39:21;;;;;;;4.25;2.03;;;;;;;3.15;44.73;101389.59;4453945;32;33790;-65
2022/03/01 07:41:49;;;;;;;7.93;1.98;;;;;;;3.43;44.36;101397.44;4450843;32;33807;-63
2022/03/01 07:44:17;;;;;;;6.32;2.20;;;;;;;3.34;44.32;101393.22;4449735;32;34677;-62
2022/03/01 07:46:49;;;;;;;7.10;2.12;;;;;;;3.33;43.97;101396.53;4451348;32;34376;-62
2022/03/01 07:49:16;;;;;;;5.45;2.05;;;;;;;3.43;43.87;101403.47;4447391;32;33597;-64
2022/03/01 07:51:44;;;;;;;6.57;1.87;;;;;;;3.33;44.17;101396.53;4432486;32;33983;-65
2022/03/01 07:54:12;;;;;;;6.53;2.03;;;;;;;3.62;43.13;101392.47;4448072;32;33993;-63
2022/03/01 07:56:40;;;;;;;5.65;2.00;;;;;;;3.72;42.88;101393.50;4451108;32;33547;-64
2022/03/01 07:59:08;;;;;;;5.50;2.08;;;;;;;3.68;42.66;101388.84;4443579;32;34668;-64
2022/03/01 08:01:35;;;;;;;6.00;1.55;;;;;;;3.65;42.37;101390.19;4437857;32;34673;-62
2022/03/01 08:04:03;;;;;;;6.53;2.00;;;;;;;3.68;42.32;101396.53;4445687;32;34131;-65
2022/03/01 08:06:31;;;;;;;6.20;2.60;;;;;;;4.02;41.69;101394.69;4440985;32;33402;-62
2022/03/01 08:09:04;;;;;;;5.22;2.45;;;;;;;3.98;41.60;101387.47;4446432;32;34081;-63
2022/03/01 08:11:32;;;;;;;4.62;1.58;;;;;;;3.80;41.62;101385.66;4448103;32;33993;-61
2022/03/01 08:13:59;;;;;;;4.25;1.67;;;;;;;4.09;41.34;101397.06;4455643;32;33743;-62
2022/03/01 08:16:27;;;;;;;5.47;1.75;;;;;;;4.28;41.05;101383.44;4453103;32;33262;-63
2022/03/01 08:18:55;;;;;;;5.75;1.83;;;;;;;4.40;41.20;101389.72;4439698;32;33900;-63
2022/03/01 08:21:22;;;;;;;4.50;1.92;;;;;;;4.35;40.36;101390.97;4439753;32;33361;-63
2022/03/01 08:23:53;;;;;;;6.00;1.75;;;;;;;4.28;40.68;101383.44;4432914;32;33117;-64
2022/03/01 08:26:20;;;;;;;7.65;2.05;;;;;;;4.30;40.94;101393.06;4451751;32;33447;-64
2022/03/01 08:28:48;;;;;;;5.22;1.20;;;;;;;4.34;40.54;101386.59;4445244;32;33813;-65
2022/03/01 08:31:16;;;;;;;5.85;1.85;;;;;;;4.50;40.01;101395.00;4449071;32;34836;-64
2022/03/01 08:33:44;;;;;;;5.18;1.73;;;;;;;4.79;38.94;101391.69;4447810;32;34014;-63
2022/03/01 08:36:17;;;;;;;6.50;2.05;;;;;;;5.14;39.04;101401.75;4449487;32;33733;-62
2022/03/01 08:38:44;;;;;;;4.90;1.85;;;;;;;5.44;38.69;101397.59;4447113;32;33879;-62
2022/03/01 08:41:12;;;;;;;3.80;1.60;;;;;;;5.49;38.43;101391.22;4445678;32;34692;-62
2022/03/01 08:43:40;;;;;;;3.15;1.37;;;;;;;5.66;37.10;101385.91;4436337;32;34482;-62
2022/03/01 08:46:12;;;;;;;4.37;1.25;;;;;;;5.45;36.67;101376.28;4452002;32;33322;-62
2022/03/01 08:48:40;;;;;;;4.50;1.60;;;;;;;5.66;36.97;101379.84;4452557;32;33912;-62
2022/03/01 08:51:08;;;;;;;3.95;1.55;;;;;;;5.19;36.28;101369.66;4446025;32;33892;-62
2022/03/01 08:53:35;;;;;;;8.10;1.85;;;;;;;5.57;36.34;101382.50;4452488;32;34633;-62
2022/03/01 08:56:03;;;;;;;6.97;2.20;;;;;;;5.59;36.63;101367.22;4437134;32;33270;-62
2022/03/01 08:58:31;;;;;;;4.07;1.40;;;;;;;5.71;36.49;101369.22;4443114;32;33632;-62
2022/03/01 09:01:02;;;;;;;4.37;1.50;;;;;;;6.00;35.24;101370.03;4452224;32;33130;-62
2022/03/01 09:03:30;;;;;;;6.82;2.03;;;;;;;5.90;35.77;101355.44;4456770;32;34558;-62
2022/03/01 09:06:12;;;;;;;5.65;1.87;;;;;;;5.70;35.93;101353.69;4459032;32;34130;-62
2022/03/01 09:08:40;;;;;;;6.82;1.73;;;;;;;6.09;34.96;101358.87;4440777;32;33672;-62
2022/03/01 09:11:09;;;;;;;3.72;1.73;;;;;;;6.04;35.96;101349.84;4455218;32;33824;-62
2022/03/01 09:13:38;;;;;;;4.07;1.62;;;;;;;6.03;35.23;101348.06;4440899;32;34381;-63
2022/03/01 09:16:07;;;;;;;4.40;1.73;;;;;;;6.14;35.15;101353.22;4454302;32;34065;-65
2022/03/01 09:18:35;;;;;;;4.47;1.58;;;;;;;6.32;35.43;101356.50;4452935;32;35159;-62
2022/03/01 09:21:04;;;;;;;5.35;1.80;;;;;;;6.15;34.35;101347.34;4444756;32;34087;-61
2022/03/01 09:23:32;;;;;;;8.55;2.28;;;;;;;6.59;33.81;101343.44;4450757;32;34152;-63
2022/03/01 09:26:00;;;;;;;14.43;5.00;;;;;;;6.47;33.49;101353.59;4450602;32;34309;-63
2022/03/01 09:28:30;;;;;;;15.32;6.47;;;;;;;7.16;32.77;101349.88;4449998;32;34462;-64
2022/03/01 09:30:57;;;;;;;7.68;2.55;;;;;;;7.11;32.52;101344.34;4451192;32;33720;-62
2022/03/01 09:33:25;;;;;;;8.00;3.37;;;;;;;7.27;32.34;101344.84;4439287;32;34036;-62
2022/03/01 09:35:52;;;;;;;6.90;3.03;;;;;;;7.73;31.78;101339.97;4436560;32;33534;-62
2022/03/01 09:38:21;;;;;;;5.35;1.80;;;;;;;7.43;31.97;101333.22;4451569;32;33978;-62
2022/03/01 09:40:49;;;;;;;5.25;1.50;;;;;;;7.66;31.44;101330.81;4454062;32;33948;-63
2022/03/01 09:43:16;;;;;;;3.80;1.70;;;;;;;7.96;31.16;101321.16;4451009;32;35480;-61
2022/03/01 09:45:44;;;;;;;5.07;1.65;;;;;;;8.08;30.15;101324.72;4449998;32;34212;-64
2022/03/01 09:48:11;;;;;;;4.85;1.50;;;;;;;8.37;30.09;101315.78;4452410;32;33975;-64
2022/03/01 09:50:40;;;;;;;4.35;1.67;;;;;;;8.25;30.67;101314.81;4435208;32;33856;-64
2022/03/01 09:53:08;;;;;;;4.10;1.42;;;;;;;8.73;30.12;101309.09;4452290;32;34006;-65
2022/03/01 09:55:36;;;;;;;3.40;1.60;;;;;;;9.05;29.17;101301.16;4452846;32;33690;-63
2022/03/01 09:58:03;;;;;;;3.20;1.40;;;;;;;8.27;29.84;101305.53;4452309;32;33712;-63
2022/03/01 10:00:31;;;;;;;3.50;1.30;;;;;;;8.60;28.87;101299.50;4448694;32;34828;-63
2022/03/01 10:02:59;;;;;;;4.22;1.87;;;;;;;8.36;30.25;101290.72;4444930;32;33875;-65
2022/03/01 10:05:34;;;;;;;3.83;1.55;;;;;;;8.41;29.79;101289.44;4452537;32;34102;-63
2022/03/01 10:08:07;;;;;;;4.70;2.30;;;;;;;8.92;34.50;101282.94;4454515;32;34126;-64
2022/03/01 10:10:39;;;;;;;3.80;1.37;;;;;;;9.72;36.31;101282.75;4440234;32;34368;-65
2022/03/01 10:13:08;;;;;;;4.95;1.75;;;;;;;10.36;33.94;101286.44;4453616;32;34110;-64
2022/03/01 10:15:35;;;;;;;4.12;1.50;;;;;;;10.19;27.14;101267.97;4453541;32;33675;-63
2022/03/01 10:18:14;;;;;;;3.35;1.40;;;;;;;10.44;27.01;101274.88;4452060;32;33898;-62
2022/03/01 10:20:45;;;;;;;4.05;1.98;;;;;;;10.67;25.73;101268.69;4452918;32;34011;-62
2022/03/01 10:23:19;;;;;;;4.75;1.40;;;;;;;10.78;25.71;101267.72;4449064;32;33981;-63
2022/03/01 10:25:47;;;;;;;3.62;1.40;;;;;;;10.68;25.97;101264.41;4445101;32;34050;-65
2022/03/01 10:28:14;;;;;;;5.50;1.95;;;;;;;11.40;25.28;101245.84;4437579;32;34617;-64
2022/03/01 10:30:44;;;;;;;5.07;2.10;;;;;;;11.46;25.03;101246.22;4452305;32;33731;-64
2022/03/01 10:33:14;;;;;;;6.03;2.00;;;;;;;11.09;25.48;101237.78;4454146;32;34476;-65
2022/03/01 10:35:56;;;;;;;4.10;1.60;;;;;;;10.92;25.10;101241.84;4453456;32;33495;-64
2022/03/01 10:38:24;;;;;;;5.57;1.62;;;;;;;10.86;25.73;101244.91;4435664;32;34010;-65
2022/03/01 10:40:57;;;;;;;5.12;2.12;;;;;;;11.33;24.34;101238.44;4438912;32;33896;-64
2022/03/01 10:43:26;;;;;;;5.95;1.75;;;;;;;11.11;24.71;101231.88;4450326;32;34566;-62
2022/03/01 10:45:54;;;;;;;3.92;1.40;;;;;;;10.09;25.26;101233.59;4446468;32;33402;-63
2022/03/01 10:48:31;;;;;;;5.12;1.33;;;;;;;10.31;24.82;101236.87;4452796;32;34013;-63
2022/03/01 10:51:06;;;;;;;4.28;1.65;;;;;;;10.91;23.71;101221.88;4442798;32;33885;-65
2022/03/01 10:53:36;;;;;;;4.70;1.90;;;;;;;10.36;25.52;101219.97;4453615;32;33896;-63
2022/03/01 10:56:08;;;;;;;6.18;1.42;;;;;;;10.38;24.33;101210.59;4454138;32;33334;-62
2022/03/01 10:58:37;;;;;;;4.40;1.45;;;;;;;10.32;24.55;101202.44;4450826;32;33702;-65
2022/03/01 11:01:06;;;;;;;3.30;1.50;;;;;;;10.79;23.50;101194.34;4439740;32;34711;-63
2022/03/01 11:03:34;;;;;;;3.22;1.30;;;;;;;11.54;23.15;101198.31;4436530;32;34070;-65
2022/03/01 11:06:03;;;;;;;4.35;1.52;;;;;;;11.56;23.14;101196.69;4438095;32;32710;-63
2022/03/01 11:08:38;;;;;;;6.60;1.90;;;;;;;12.15;22.13;101192.56;4452192;32;34008;-63
2022/03/01 11:11:10;;;;;;;4.37;1.80;;;;;;;11.91;22.52;101179.84;4450676;32;34524;-64
2022/03/01 11:13:40;;;;;;;4.30;1.50;;;;;;;10.93;23.90;101171.03;4447217;32;33771;-61
2022/03/01 11:16:10;;;;;;;6.55;1.67;;;;;;;10.87;23.72;101171.50;4437791;32;33868;-61
2022/03/01 11:18:53;;;;;;;4.87;1.50;;;;;;;10.36;24.12;101177.62;4451686;32;34775;-62
2022/03/01 11:21:21;;;;;;;4.87;1.42;;;;;;;11.31;22.77;101172.59;4446027;32;34660;-61
2022/03/01 11:23:52;;;;;;;4.30;1.92;;;;;;;10.34;23.90;101166.28;4451418;32;34714;-62
2022/03/01 11:26:21;;;;;;;4.35;1.60;;;;;;;10.65;23.23;101161.44;4436500;32;33202;-62
2022/03/01 11:28:54;;;;;;;4.72;1.60;;;;;;;11.36;22.24;101151.34;4451760;32;34119;-62
2022/03/01 11:31:27;;;;;;;5.90;1.52;;;;;;;11.91;29.96;101145.22;4439388;32;33220;-62
2022/03/01 11:34:00;;;;;;;3.03;1.40;;;;;;;11.99;23.91;101142.28;4453264;32;33815;-62
2022/03/01 11:36:32;;;;;;;4.75;1.60;;;;;;;12.07;21.79;101132.37;4449945;32;34081;-62
2022/03/01 11:39:13;;;;;;;4.57;1.70;;;;;;;11.97;21.45;101133.47;4434419;32;33773;-62